createdAt,value
2019-06-26T00:00:57.245Z,5.00
2019-06-26T00:03:25.057Z,4.30
2019-06-26T00:05:53.912Z,6.37
2019-06-26T00:08:22.498Z,4.60
2019-06-26T00:10:50.862Z,4.53
2019-06-26T00:13:26.360Z,4.60
2019-06-26T00:15:51.227Z,4.40
2019-06-26T00:18:22.968Z,3.80
2019-06-26T00:20:51.680Z,4.50
2019-06-26T00:23:20.139Z,4.23
2019-06-26T00:25:48.150Z,3.63
2019-06-26T00:28:16.213Z,4.53
2019-06-26T00:30:44.949Z,4.43
2019-06-26T00:33:12.969Z,4.30
2019-06-26T00:35:41.667Z,4.57
2019-06-26T00:38:09.695Z,4.27
2019-06-26T00:40:37.433Z,5.10
2019-06-26T00:43:05.133Z,4.50
2019-06-26T00:45:32.780Z,3.60
2019-06-26T00:48:01.187Z,3.93
2019-06-26T00:50:29.887Z,4.27
2019-06-26T00:52:57.579Z,4.77
2019-06-26T00:55:26.039Z,3.73
2019-06-26T00:57:53.639Z,4.20
2019-06-26T01:00:27.703Z,3.90
2019-06-26T01:02:55.647Z,4.93
2019-06-26T01:05:23.719Z,3.70
2019-06-26T01:07:52.043Z,4.20
2019-06-26T01:10:20.151Z,4.20
2019-06-26T01:12:47.446Z,4.50
2019-06-26T01:15:15.877Z,4.77
2019-06-26T01:17:43.860Z,4.90
2019-06-26T01:20:12.312Z,4.00
2019-06-26T01:22:40.453Z,3.57
2019-06-26T01:25:08.636Z,4.07
2019-06-26T01:27:37.110Z,3.47
2019-06-26T01:30:06.469Z,4.07
2019-06-26T01:32:34.526Z,3.40
2019-06-26T01:35:02.213Z,3.50
2019-06-26T01:37:30.600Z,3.70
2019-06-26T01:39:59.040Z,4.10
2019-06-26T01:42:27.054Z,3.33
2019-06-26T01:44:55.020Z,3.60
2019-06-26T01:47:23.509Z,4.60
2019-06-26T01:49:51.869Z,4.60
2019-06-26T01:52:19.603Z,3.63
2019-06-26T01:54:47.617Z,4.10
2019-06-26T01:57:15.591Z,4.10
2019-06-26T01:59:43.657Z,4.10
2019-06-26T02:02:11.388Z,4.07
2019-06-26T02:04:39.101Z,3.77
2019-06-26T02:07:07.285Z,4.40
2019-06-26T02:09:35.780Z,4.07
2019-06-26T02:12:03.440Z,4.30
2019-06-26T02:14:32.010Z,4.53
2019-06-26T02:17:00.359Z,4.27
2019-06-26T02:19:29.870Z,4.33
2019-06-26T02:21:57.889Z,4.77
2019-06-26T02:24:26.327Z,4.50
2019-06-26T02:26:54.296Z,3.77
2019-06-26T02:29:22.248Z,4.47
2019-06-26T02:31:53.108Z,3.90
2019-06-26T02:34:21.600Z,4.37
2019-06-26T02:36:50.058Z,3.43
2019-06-26T02:39:17.616Z,4.00
2019-06-26T02:41:46.208Z,3.67
2019-06-26T02:44:14.368Z,3.43
2019-06-26T02:46:42.725Z,3.53
2019-06-26T02:49:11.051Z,4.03
2019-06-26T02:51:38.766Z,3.90
2019-06-26T02:54:07.289Z,4.00
2019-06-26T02:56:35.584Z,4.67
2019-06-26T02:59:02.935Z,4.30
2019-06-26T03:01:32.527Z,4.37
2019-06-26T03:04:00.607Z,4.57
2019-06-26T03:06:28.157Z,4.37
2019-06-26T03:08:57.629Z,5.00
2019-06-26T03:11:27.480Z,4.23
2019-06-26T03:13:55.974Z,4.40
2019-06-26T03:16:23.675Z,5.33
2019-06-26T03:18:51.815Z,4.20
2019-06-26T03:21:20.406Z,4.03
2019-06-26T03:23:47.791Z,4.77
2019-06-26T03:26:15.948Z,4.40
2019-06-26T03:28:44.087Z,5.07
2019-06-26T03:31:11.736Z,4.43
2019-06-26T03:33:39.772Z,4.93
2019-06-26T03:36:07.998Z,4.80
2019-06-26T03:38:35.653Z,4.70
2019-06-26T03:41:03.930Z,4.13
2019-06-26T03:43:35.306Z,4.77
2019-06-26T03:46:02.346Z,5.23
2019-06-26T03:48:29.964Z,4.70
2019-06-26T03:50:58.459Z,5.33
2019-06-26T03:53:27.052Z,4.90
2019-06-26T03:55:54.706Z,4.90
2019-06-26T03:58:22.682Z,5.47
2019-06-26T04:00:50.953Z,5.00
2019-06-26T04:03:18.604Z,5.40
2019-06-26T04:05:46.587Z,5.20
2019-06-26T04:08:17.227Z,5.33
2019-06-26T04:10:48.063Z,4.93
2019-06-26T04:13:17.270Z,5.57
2019-06-26T04:15:50.920Z,5.50
2019-06-26T04:18:19.144Z,5.77
2019-06-26T04:20:46.788Z,5.33
2019-06-26T04:23:14.770Z,5.70
2019-06-26T04:25:43.284Z,4.50
2019-06-26T04:28:11.359Z,6.07
2019-06-26T04:30:39.503Z,5.83
2019-06-26T04:33:08.399Z,6.57
2019-06-26T04:35:37.383Z,5.80
2019-06-26T04:38:07.176Z,6.00
2019-06-26T04:40:34.858Z,5.37
2019-06-26T04:43:02.926Z,6.13
2019-06-26T04:45:30.704Z,6.43
2019-06-26T04:47:59.375Z,5.10
2019-06-26T04:50:28.152Z,6.07
2019-06-26T04:52:55.825Z,5.50
2019-06-26T04:55:24.333Z,6.17
2019-06-26T04:57:52.037Z,6.00
2019-06-26T05:00:21.857Z,4.80
2019-06-26T05:02:50.692Z,6.50
2019-06-26T05:05:18.953Z,5.93
2019-06-26T05:07:47.033Z,6.80
2019-06-26T05:10:17.213Z,5.97
2019-06-26T05:12:45.606Z,5.57
2019-06-26T05:15:14.616Z,6.27
2019-06-26T05:17:42.696Z,5.33
2019-06-26T05:20:13.127Z,6.93
2019-06-26T05:22:42.079Z,6.43
2019-06-26T05:25:11.069Z,6.00
2019-06-26T05:27:39.209Z,7.03
2019-06-26T05:30:08.698Z,5.80
2019-06-26T05:32:38.276Z,5.73
2019-06-26T05:35:06.309Z,5.73
2019-06-26T05:37:34.371Z,5.80
2019-06-26T05:40:03.928Z,5.93
2019-06-26T05:42:32.750Z,4.90
2019-06-26T05:45:01.112Z,5.27
2019-06-26T05:47:29.605Z,5.37
2019-06-26T05:49:58.450Z,6.40
2019-06-26T05:52:27.476Z,5.37
2019-06-26T05:54:55.207Z,5.97
2019-06-26T05:57:23.766Z,5.53
2019-06-26T05:59:51.823Z,5.80
2019-06-26T06:02:23.494Z,5.60
2019-06-26T06:04:51.743Z,6.50
2019-06-26T06:07:19.740Z,6.10
2019-06-26T06:09:48.904Z,5.57
2019-06-26T06:12:17.680Z,6.40
2019-06-26T06:14:45.824Z,6.17
2019-06-26T06:17:14.775Z,6.37
2019-06-26T06:19:44.130Z,6.20
2019-06-26T06:22:14.535Z,6.30
2019-06-26T06:24:42.610Z,4.83
2019-06-26T06:27:11.781Z,5.93
2019-06-26T06:29:40.282Z,5.33
2019-06-26T06:32:11.279Z,5.40
2019-06-26T06:34:39.334Z,5.73
2019-06-26T06:37:07.752Z,5.00
2019-06-26T06:39:36.663Z,5.80
2019-06-26T06:42:04.590Z,5.53
2019-06-26T06:44:32.578Z,5.70
2019-06-26T06:47:04.311Z,5.90
2019-06-26T06:49:30.548Z,6.87
2019-06-26T06:51:59.267Z,6.07
2019-06-26T06:54:27.396Z,5.77
2019-06-26T06:56:58.155Z,5.23
2019-06-26T06:59:26.330Z,5.60
2019-06-26T07:01:54.400Z,5.47
2019-06-26T07:04:22.367Z,5.20
2019-06-26T07:06:50.846Z,5.17
2019-06-26T07:09:18.547Z,5.63
2019-06-26T07:11:46.608Z,5.70
2019-06-26T07:14:14.673Z,4.93
2019-06-26T07:16:42.312Z,6.00
2019-06-26T07:19:10.291Z,5.60
2019-06-26T07:21:38.307Z,5.47
2019-06-26T07:24:06.865Z,5.20
2019-06-26T07:26:35.204Z,5.73
2019-06-26T07:29:04.040Z,6.13
2019-06-26T07:31:31.767Z,5.53
2019-06-26T07:34:00.347Z,5.90
2019-06-26T07:36:29.154Z,6.77
2019-06-26T07:38:56.459Z,5.60
2019-06-26T07:41:25.230Z,6.13
2019-06-26T07:43:52.867Z,6.00
2019-06-26T07:46:20.912Z,6.37
2019-06-26T07:48:48.472Z,5.83
2019-06-26T07:51:17.743Z,6.47
2019-06-26T07:53:46.576Z,5.23
2019-06-26T07:56:18.340Z,5.37
2019-06-26T07:58:46.460Z,6.00
2019-06-26T08:01:14.900Z,6.07
2019-06-26T08:03:47.769Z,5.90
2019-06-26T08:06:15.851Z,5.47
2019-06-26T08:08:43.927Z,6.70
2019-06-26T08:11:12.652Z,7.13
2019-06-26T08:13:41.078Z,6.43
2019-06-26T08:16:09.043Z,6.30
2019-06-26T08:18:38.546Z,6.90
2019-06-26T08:21:12.520Z,6.90
2019-06-26T08:23:37.567Z,7.97
2019-06-26T08:26:07.061Z,6.90
2019-06-26T08:28:37.911Z,6.93
2019-06-26T08:31:06.278Z,6.90
2019-06-26T08:33:34.312Z,6.53
2019-06-26T08:36:02.783Z,7.20
2019-06-26T08:38:30.703Z,7.30
2019-06-26T08:40:58.807Z,6.53
2019-06-26T08:43:36.471Z,7.37
2019-06-26T08:46:04.838Z,6.60
2019-06-26T08:48:39.347Z,7.47
2019-06-26T08:51:03.888Z,7.17
2019-06-26T08:53:32.652Z,7.57
2019-06-26T08:56:01.459Z,7.10
2019-06-26T08:58:29.289Z,6.00
2019-06-26T09:00:58.818Z,7.53
2019-06-26T09:03:26.783Z,6.90
2019-06-26T09:05:54.873Z,7.17
2019-06-26T09:08:23.263Z,7.03
2019-06-26T09:10:51.558Z,7.53
2019-06-26T09:13:22.185Z,6.90
2019-06-26T09:15:50.348Z,7.33
2019-06-26T09:18:34.377Z,7.63
2019-06-26T09:20:48.350Z,6.23
2019-06-26T09:23:16.389Z,6.30
2019-06-26T09:25:44.694Z,8.97
2019-06-26T09:28:12.656Z,7.60
2019-06-26T09:30:40.703Z,8.40
2019-06-26T09:33:08.986Z,7.53
2019-06-26T09:35:41.251Z,7.70
2019-06-26T09:38:09.527Z,7.60
2019-06-26T09:40:38.004Z,6.67
2019-06-26T09:43:06.319Z,7.20
2019-06-26T09:45:34.560Z,7.17
2019-06-26T09:48:02.192Z,7.20
2019-06-26T09:50:30.796Z,6.93
2019-06-26T09:52:59.213Z,8.00
2019-06-26T09:55:29.800Z,6.83
2019-06-26T09:57:58.226Z,6.80
2019-06-26T10:00:27.026Z,6.90
2019-06-26T10:02:55.315Z,6.20
2019-06-26T10:05:25.423Z,6.00
2019-06-26T10:07:54.167Z,6.90
2019-06-26T10:10:21.928Z,6.97
2019-06-26T10:12:51.209Z,7.40
2019-06-26T10:15:19.737Z,6.67
2019-06-26T10:17:48.832Z,6.70
2019-06-26T10:20:17.022Z,6.80
2019-06-26T10:22:45.789Z,7.30
2019-06-26T10:25:14.803Z,5.83
2019-06-26T10:27:45.715Z,6.33
2019-06-26T10:30:16.845Z,6.37
2019-06-26T10:32:45.354Z,7.03
2019-06-26T10:35:15.372Z,6.40
2019-06-26T10:37:43.345Z,5.50
2019-06-26T10:40:11.177Z,5.30
2019-06-26T10:42:39.992Z,5.60
2019-06-26T10:45:08.475Z,5.30
2019-06-26T10:47:39.671Z,7.33
2019-06-26T10:50:08.179Z,6.53
2019-06-26T10:52:36.672Z,6.20
2019-06-26T10:55:07.103Z,6.20
2019-06-26T10:57:34.871Z,6.80
2019-06-26T11:00:04.385Z,6.77
2019-06-26T11:02:35.451Z,6.10
2019-06-26T11:05:09.672Z,6.53
2019-06-26T11:07:37.818Z,6.20
2019-06-26T11:10:08.867Z,6.50
2019-06-26T11:12:37.247Z,6.57
2019-06-26T11:15:06.440Z,7.10
2019-06-26T11:17:35.674Z,6.73
2019-06-26T11:20:04.336Z,6.50
2019-06-26T11:22:32.784Z,6.83
2019-06-26T11:25:00.464Z,6.07
2019-06-26T11:27:28.952Z,6.50
2019-06-26T11:29:58.754Z,6.90
2019-06-26T11:32:26.552Z,7.70
2019-06-26T11:34:55.738Z,7.37
2019-06-26T11:37:29.241Z,6.70
2019-06-26T11:39:57.488Z,6.67
2019-06-26T11:42:26.272Z,7.43
2019-06-26T11:44:55.197Z,6.70
2019-06-26T11:47:27.692Z,7.07
2019-06-26T11:49:59.764Z,6.83
2019-06-26T11:52:30.918Z,6.93
2019-06-26T11:55:11.756Z,7.63
2019-06-26T11:57:39.897Z,7.50
2019-06-26T12:00:11.933Z,6.73
2019-06-26T12:02:41.181Z,6.80
2019-06-26T12:05:12.131Z,6.20
2019-06-26T12:07:41.866Z,7.00
2019-06-26T12:10:11.866Z,7.03
2019-06-26T12:12:41.440Z,7.70
2019-06-26T12:15:13.305Z,6.97
2019-06-26T12:17:51.595Z,7.00
2019-06-26T12:20:20.829Z,6.17
2019-06-26T12:22:50.653Z,6.53
2019-06-26T12:25:18.515Z,6.50
2019-06-26T12:27:50.638Z,6.17
2019-06-26T12:30:21.307Z,6.13
2019-06-26T12:33:03.037Z,7.00
2019-06-26T12:35:23.481Z,6.53
2019-06-26T12:37:51.868Z,6.90
2019-06-26T12:40:22.928Z,7.40
2019-06-26T12:42:54.503Z,7.00
2019-06-26T12:45:24.364Z,7.17
2019-06-26T12:47:53.677Z,7.00
2019-06-26T12:50:34.571Z,6.60
2019-06-26T12:52:55.842Z,7.13
2019-06-26T12:55:26.599Z,6.47
2019-06-26T12:58:11.815Z,6.83
2019-06-26T13:00:31.924Z,6.10
2019-06-26T13:03:00.160Z,6.17
2019-06-26T13:05:33.688Z,6.63
2019-06-26T13:08:04.982Z,6.30
2019-06-26T13:10:48.471Z,6.30
2019-06-26T13:13:06.709Z,7.30
2019-06-26T13:15:38.287Z,7.97
2019-06-26T13:18:07.138Z,6.93
2019-06-26T13:20:51.557Z,6.10
2019-06-26T13:23:14.902Z,7.00
2019-06-26T13:25:45.444Z,6.50
2019-06-26T13:28:13.959Z,7.53
2019-06-26T13:30:46.693Z,6.80
2019-06-26T13:33:20.157Z,6.87
2019-06-26T13:35:48.223Z,6.70
2019-06-26T13:38:18.211Z,7.87
2019-06-26T13:40:49.137Z,7.50
2019-06-26T13:43:22.191Z,7.97
2019-06-26T13:45:53.655Z,7.23
2019-06-26T13:48:23.489Z,7.20
2019-06-26T13:50:51.008Z,6.97
2019-06-26T13:53:23.825Z,8.00
2019-06-26T13:55:52.733Z,7.50
2019-06-26T13:58:20.853Z,8.80
2019-06-26T14:00:50.462Z,8.07
2019-06-26T14:03:19.494Z,7.50
2019-06-26T14:05:48.064Z,8.00
2019-06-26T14:08:16.584Z,10.03
2019-06-26T14:10:47.264Z,8.90
2019-06-26T14:13:17.744Z,8.40
2019-06-26T14:15:48.935Z,8.40
2019-06-26T14:18:17.054Z,8.97
2019-06-26T14:20:49.484Z,8.50
2019-06-26T14:23:18.092Z,8.33
2019-06-26T14:25:46.439Z,9.23
2019-06-26T14:28:15.261Z,9.10
2019-06-26T14:30:43.343Z,8.53
2019-06-26T14:33:12.643Z,8.90
2019-06-26T14:35:40.334Z,9.27
2019-06-26T14:38:10.104Z,9.53
2019-06-26T14:40:38.504Z,8.70
2019-06-26T14:43:07.111Z,8.97
2019-06-26T14:45:36.573Z,9.90
2019-06-26T14:48:07.409Z,8.40
2019-06-26T14:50:35.813Z,8.40
2019-06-26T14:53:03.878Z,9.17
2019-06-26T14:55:32.074Z,9.80
2019-06-26T14:58:00.661Z,8.00
2019-06-26T15:00:31.305Z,8.13
2019-06-26T15:03:01.808Z,8.70
2019-06-26T15:05:30.369Z,7.90
2019-06-26T15:08:07.564Z,8.90
2019-06-26T15:10:36.213Z,8.97
2019-06-26T15:13:05.570Z,8.83
2019-06-26T15:15:34.036Z,8.60
2019-06-26T15:18:01.371Z,8.03
2019-06-26T15:20:29.776Z,8.53
2019-06-26T15:22:58.936Z,8.30
2019-06-26T15:25:28.103Z,7.23
2019-06-26T15:27:57.218Z,6.57
2019-06-26T15:30:26.900Z,9.67
2019-06-26T15:33:28.251Z,6.90
2019-06-26T15:36:01.435Z,7.10
2019-06-26T15:38:41.762Z,9.20
2019-06-26T15:41:10.754Z,8.20
2019-06-26T15:43:39.748Z,7.87
2019-06-26T15:46:08.552Z,8.33
2019-06-26T15:48:37.618Z,9.13
2019-06-26T15:51:07.405Z,8.63
2019-06-26T15:53:35.329Z,8.27
2019-06-26T15:56:04.248Z,8.70
2019-06-26T15:58:35.774Z,9.53
2019-06-26T16:01:05.479Z,9.07
2019-06-26T16:03:33.188Z,8.50
2019-06-26T16:06:01.314Z,9.57
2019-06-26T16:08:29.464Z,8.20
2019-06-26T16:10:58.771Z,10.90
2019-06-26T16:13:28.057Z,9.13
2019-06-26T16:15:57.870Z,8.73
2019-06-26T16:18:37.969Z,8.93
2019-06-26T16:21:06.109Z,10.47
2019-06-26T16:23:34.201Z,10.57
2019-06-26T16:26:04.834Z,9.87
2019-06-26T16:28:32.709Z,10.20
2019-06-26T16:31:03.537Z,9.73
2019-06-26T16:33:32.047Z,9.50
2019-06-26T16:36:01.247Z,9.43
2019-06-26T16:38:30.777Z,9.93
2019-06-26T16:40:59.463Z,9.90
2019-06-26T16:43:28.106Z,10.80
2019-06-26T16:45:56.708Z,9.57
2019-06-26T16:48:25.853Z,10.80
2019-06-26T16:50:53.668Z,9.90
2019-06-26T16:53:22.654Z,9.30
2019-06-26T16:55:53.927Z,10.03
2019-06-26T16:58:22.005Z,19.00
2019-06-26T17:00:59.072Z,10.87
2019-06-26T17:03:28.849Z,10.67
2019-06-26T17:06:05.004Z,10.40
2019-06-26T17:08:43.100Z,9.90
2019-06-26T17:11:12.524Z,11.20
2019-06-26T17:13:45.243Z,9.80
2019-06-26T17:16:13.506Z,9.90
2019-06-26T17:18:44.854Z,11.07
2019-06-26T17:21:14.274Z,10.60
2019-06-26T17:23:42.036Z,9.77
2019-06-26T17:26:11.860Z,10.47
2019-06-26T17:28:42.151Z,11.10
2019-06-26T17:31:10.445Z,10.13
2019-06-26T17:33:38.495Z,10.47
2019-06-26T17:36:11.979Z,11.30
2019-06-26T17:38:44.547Z,10.87
2019-06-26T17:41:14.529Z,8.53
2019-06-26T17:43:42.903Z,10.27
2019-06-26T17:46:11.344Z,9.57
2019-06-26T17:48:39.872Z,10.57
2019-06-26T17:51:07.905Z,11.17
2019-06-26T17:53:36.048Z,11.50
2019-06-26T17:56:03.879Z,10.43
2019-06-26T17:58:32.686Z,10.67
2019-06-26T18:01:00.341Z,11.93
2019-06-26T18:03:29.291Z,12.20
2019-06-26T18:05:58.006Z,13.50
2019-06-26T18:08:26.351Z,11.30
2019-06-26T18:10:54.779Z,10.77
2019-06-26T18:13:22.943Z,11.57
2019-06-26T18:15:54.078Z,11.10
2019-06-26T18:18:23.166Z,11.47
2019-06-26T18:20:55.189Z,10.57
2019-06-26T18:23:36.704Z,11.50
2019-06-26T18:25:55.824Z,11.60
2019-06-26T18:28:23.417Z,10.33
2019-06-26T18:30:52.230Z,11.00
2019-06-26T18:33:20.911Z,11.37
2019-06-26T18:35:51.112Z,12.40
2019-06-26T18:38:19.631Z,11.10
2019-06-26T18:40:48.572Z,11.10
2019-06-26T18:43:17.507Z,12.10
2019-06-26T18:45:49.701Z,11.80
2019-06-26T18:48:24.918Z,10.93
2019-06-26T18:50:53.512Z,11.03
2019-06-26T18:53:21.663Z,11.90
2019-06-26T18:55:51.295Z,11.13
2019-06-26T18:58:19.102Z,10.63
2019-06-26T19:00:49.695Z,11.80
2019-06-26T19:03:17.329Z,11.10
2019-06-26T19:05:46.010Z,10.70
2019-06-26T19:08:14.461Z,11.50
2019-06-26T19:10:43.622Z,12.53
2019-06-26T19:13:12.061Z,10.93
2019-06-26T19:15:41.425Z,11.30
2019-06-26T19:18:09.784Z,12.23
2019-06-26T19:20:38.671Z,11.30
2019-06-26T19:23:07.472Z,11.30
2019-06-26T19:25:36.091Z,10.70
2019-06-26T19:28:06.267Z,10.90
2019-06-26T19:30:35.118Z,10.70
2019-06-26T19:33:05.989Z,11.73
2019-06-26T19:35:35.287Z,11.87
2019-06-26T19:38:03.435Z,9.90
2019-06-26T19:40:31.144Z,10.60
2019-06-26T19:42:58.876Z,10.10
2019-06-26T19:45:48.805Z,10.67
2019-06-26T19:48:18.848Z,10.20
2019-06-26T19:50:47.583Z,10.93
2019-06-26T19:53:18.019Z,10.93
2019-06-26T19:55:47.808Z,10.30
2019-06-26T19:58:21.195Z,9.80
2019-06-26T20:00:49.473Z,11.73
2019-06-26T20:03:18.659Z,11.10
2019-06-26T20:05:50.128Z,10.40
2019-06-26T20:08:17.799Z,10.47
2019-06-26T20:10:46.819Z,10.77
2019-06-26T20:13:15.380Z,11.30
2019-06-26T20:15:43.714Z,10.90
2019-06-26T20:18:41.949Z,11.30
2019-06-26T20:21:10.398Z,10.70
2019-06-26T20:23:38.933Z,11.27
2019-06-26T20:26:25.961Z,11.53
2019-06-26T20:28:56.081Z,11.20
2019-06-26T20:31:30.168Z,11.63
2019-06-26T20:33:55.199Z,10.97
2019-06-26T20:36:25.871Z,11.20
2019-06-26T20:39:01.542Z,11.40
2019-06-26T20:41:32.780Z,10.13
2019-06-26T20:44:01.704Z,10.03
2019-06-26T20:46:30.901Z,10.77
2019-06-26T20:48:59.497Z,11.37
2019-06-26T20:51:28.506Z,11.00
2019-06-26T20:53:57.954Z,11.63
2019-06-26T20:56:27.181Z,11.27
2019-06-26T20:58:57.780Z,11.60
2019-06-26T21:01:27.639Z,11.33
2019-06-26T21:03:57.200Z,11.73
2019-06-26T21:06:28.595Z,12.27
2019-06-26T21:08:58.352Z,11.50
2019-06-26T21:11:30.690Z,11.30
2019-06-26T21:14:04.989Z,11.40
2019-06-26T21:16:46.549Z,11.70
2019-06-26T21:19:19.797Z,11.60
2019-06-26T21:21:49.086Z,13.00
2019-06-26T21:24:18.721Z,12.17
2019-06-26T21:26:47.766Z,12.03
2019-06-26T21:29:18.562Z,13.00
2019-06-26T21:31:47.347Z,12.07
2019-06-26T21:34:19.810Z,11.37
2019-06-26T21:36:52.631Z,11.50
2019-06-26T21:39:22.507Z,11.80
2019-06-26T21:41:51.342Z,13.30
2019-06-26T21:44:20.007Z,12.13
2019-06-26T21:46:49.620Z,12.47
2019-06-26T21:49:19.140Z,11.70
2019-06-26T21:51:47.621Z,12.73
2019-06-26T21:54:15.580Z,13.33
2019-06-26T21:56:46.371Z,12.10
2019-06-26T21:59:15.984Z,12.00
2019-06-26T22:01:47.945Z,12.10
2019-06-26T22:04:16.853Z,12.33
2019-06-26T22:06:46.770Z,12.73
2019-06-26T22:09:15.495Z,12.37
2019-06-26T22:11:43.946Z,11.50
2019-06-26T22:14:13.142Z,12.30
2019-06-26T22:16:41.630Z,12.80
2019-06-26T22:19:10.031Z,12.20
2019-06-26T22:21:38.796Z,11.77
2019-06-26T22:24:09.357Z,12.70
2019-06-26T22:26:38.257Z,12.27
2019-06-26T22:29:05.968Z,12.47
2019-06-26T22:31:34.666Z,12.20
2019-06-26T22:34:04.665Z,12.03
2019-06-26T22:36:33.880Z,10.83
2019-06-26T22:39:02.775Z,11.97
2019-06-26T22:41:30.905Z,10.90
2019-06-26T22:43:59.665Z,11.60
2019-06-26T22:46:30.141Z,11.23
2019-06-26T22:48:57.515Z,10.63
2019-06-26T22:51:25.905Z,11.40
2019-06-26T22:53:55.376Z,11.13
2019-06-26T22:56:23.078Z,11.13
2019-06-26T22:58:51.550Z,10.07
2019-06-26T23:01:20.153Z,10.63
2019-06-26T23:03:48.624Z,11.27
2019-06-26T23:06:16.856Z,11.57
2019-06-26T23:08:45.287Z,10.63
2019-06-26T23:11:13.789Z,10.97
2019-06-26T23:13:41.540Z,10.60
2019-06-26T23:16:11.974Z,10.73
2019-06-26T23:18:40.145Z,10.87
2019-06-26T23:21:08.912Z,10.37
2019-06-26T23:23:36.164Z,10.67
2019-06-26T23:26:04.154Z,9.93
2019-06-26T23:28:31.790Z,11.17
2019-06-26T23:31:00.891Z,11.53
2019-06-26T23:33:29.959Z,10.80
2019-06-26T23:36:01.771Z,10.87
2019-06-26T23:38:30.589Z,10.37
2019-06-26T23:40:59.341Z,11.30
2019-06-26T23:43:27.481Z,10.77
2019-06-26T23:45:57.265Z,9.90
2019-06-26T23:48:26.378Z,11.50
2019-06-26T23:50:55.538Z,10.97
2019-06-26T23:53:24.033Z,10.30
2019-06-26T23:55:51.952Z,10.80
2019-06-26T23:58:21.140Z,11.00
